createdAt,value
2019-05-03T00:00:42.595Z,98.40
2019-05-03T00:03:13.100Z,98.10
2019-05-03T00:05:43.689Z,98.30
2019-05-03T00:08:12.751Z,98.40
2019-05-03T00:10:42.535Z,98.30
2019-05-03T00:13:12.499Z,98.80
2019-05-03T00:15:45.958Z,98.50
2019-05-03T00:18:17.358Z,98.60
2019-05-03T00:20:46.323Z,98.70
2019-05-03T00:23:15.212Z,98.30
2019-05-03T00:25:46.350Z,98.20
2019-05-03T00:28:15.221Z,98.40
2019-05-03T00:30:44.149Z,98.40
2019-05-03T00:33:13.007Z,98.00
2019-05-03T00:35:52.812Z,98.00
2019-05-03T00:38:22.778Z,97.70
2019-05-03T00:40:52.357Z,97.60
2019-05-03T00:43:22.245Z,97.10
2019-05-03T00:45:51.743Z,97.20
2019-05-03T00:48:21.996Z,96.70
2019-05-03T00:50:51.777Z,97.40
2019-05-03T00:53:22.441Z,96.60
2019-05-03T00:55:52.447Z,96.80
2019-05-03T00:58:22.387Z,97.10
2019-05-03T01:00:52.448Z,96.70
2019-05-03T01:03:22.067Z,95.90
2019-05-03T01:05:52.737Z,95.90
2019-05-03T01:08:22.015Z,96.00
2019-05-03T01:10:51.681Z,96.20
2019-05-03T01:13:21.891Z,95.80
2019-05-03T01:15:58.718Z,95.50
2019-05-03T01:18:27.626Z,95.40
2019-05-03T01:20:56.494Z,94.70
2019-05-03T01:23:25.394Z,95.90
2019-05-03T01:25:55.683Z,95.90
2019-05-03T01:28:25.066Z,96.20
2019-05-03T01:30:53.969Z,95.90
2019-05-03T01:33:22.857Z,96.30
2019-05-03T01:35:51.949Z,96.00
2019-05-03T01:38:22.680Z,95.40
2019-05-03T01:40:52.197Z,95.00
2019-05-03T01:43:22.176Z,95.10
2019-05-03T01:45:51.877Z,95.60
2019-05-03T01:48:34.798Z,95.40
2019-05-03T01:51:07.918Z,95.30
2019-05-03T01:53:41.684Z,95.30
2019-05-03T01:56:11.814Z,95.20
2019-05-03T01:58:41.740Z,95.10
2019-05-03T02:01:12.700Z,94.60
2019-05-03T02:03:43.377Z,94.80
2019-05-03T02:06:12.279Z,94.80
2019-05-03T02:08:41.812Z,94.90
2019-05-03T02:11:11.633Z,94.90
2019-05-03T02:13:42.654Z,94.40
2019-05-03T02:16:13.483Z,94.50
2019-05-03T02:18:44.693Z,94.90
2019-05-03T02:21:13.552Z,94.60
2019-05-03T02:23:42.682Z,94.40
2019-05-03T02:26:12.241Z,93.70
2019-05-03T02:28:42.190Z,93.90
2019-05-03T02:31:13.743Z,94.20
2019-05-03T02:33:43.412Z,94.00
2019-05-03T02:36:13.650Z,93.70
2019-05-03T02:38:43.179Z,94.20
2019-05-03T02:41:13.453Z,93.90
2019-05-03T02:43:55.795Z,94.30
2019-05-03T02:46:25.443Z,93.40
2019-05-03T02:49:08.017Z,93.20
2019-05-03T02:51:36.921Z,93.40
2019-05-03T02:54:06.320Z,93.90
2019-05-03T02:56:35.752Z,93.80
2019-05-03T02:59:06.153Z,94.20
2019-05-03T03:01:36.001Z,94.40
2019-05-03T03:04:05.648Z,94.40
2019-05-03T03:06:36.698Z,94.40
2019-05-03T03:09:06.810Z,94.50
2019-05-03T03:11:38.818Z,94.70
2019-05-03T03:14:10.007Z,94.60
2019-05-03T03:16:39.421Z,94.80
2019-05-03T03:19:15.742Z,94.50
2019-05-03T03:22:00.925Z,95.30
2019-05-03T03:24:32.002Z,94.60
2019-05-03T03:27:05.370Z,94.70
2019-05-03T03:29:36.137Z,94.70
2019-05-03T03:32:18.823Z,94.50
2019-05-03T03:35:11.818Z,94.60
2019-05-03T03:37:40.461Z,94.50
2019-05-03T03:40:09.908Z,94.70
2019-05-03T03:42:40.909Z,94.50
2019-05-03T03:45:10.999Z,94.30
2019-05-03T03:47:39.867Z,94.80
2019-05-03T03:50:10.386Z,94.60
2019-05-03T03:52:42.075Z,94.90
2019-05-03T03:55:11.488Z,95.00
2019-05-03T03:57:46.826Z,94.30
2019-05-03T04:00:36.147Z,94.60
2019-05-03T04:03:05.938Z,94.10
2019-05-03T04:05:35.815Z,94.10
2019-05-03T04:08:05.792Z,93.60
2019-05-03T04:10:35.925Z,93.80
2019-05-03T04:13:06.496Z,93.60
2019-05-03T04:15:52.791Z,93.80
2019-05-03T04:18:29.795Z,93.90
2019-05-03T04:21:17.949Z,94.10
2019-05-03T04:23:46.783Z,94.30
2019-05-03T04:26:16.440Z,94.40
2019-05-03T04:28:45.610Z,94.30
2019-05-03T04:31:15.292Z,94.20
2019-05-03T04:33:45.350Z,93.80
2019-05-03T04:36:15.967Z,93.80
2019-05-03T04:38:45.360Z,94.00
2019-05-03T04:41:15.877Z,94.20
2019-05-03T04:43:46.020Z,94.60
2019-05-03T04:46:19.405Z,94.80
2019-05-03T04:48:48.260Z,95.10
2019-05-03T04:51:18.220Z,95.20
2019-05-03T04:53:48.707Z,95.60
2019-05-03T04:56:17.602Z,95.80
2019-05-03T04:58:46.499Z,95.90
2019-05-03T05:01:17.068Z,96.00
2019-05-03T05:03:45.933Z,96.10
2019-05-03T05:06:15.478Z,96.40
2019-05-03T05:08:46.032Z,96.60
2019-05-03T05:11:16.630Z,96.50
2019-05-03T05:13:45.944Z,96.50
2019-05-03T05:16:16.317Z,96.30
2019-05-03T05:18:46.745Z,96.30
2019-05-03T05:21:19.662Z,96.50
2019-05-03T05:23:59.112Z,96.50
2019-05-03T05:26:32.743Z,96.50
2019-05-03T05:29:08.980Z,96.20
2019-05-03T05:31:37.812Z,96.30
2019-05-03T05:34:08.927Z,95.80
2019-05-03T05:36:38.065Z,95.70
2019-05-03T05:39:08.579Z,95.60
2019-05-03T05:41:38.880Z,95.60
2019-05-03T05:44:07.749Z,95.30
2019-05-03T05:46:38.271Z,95.30
2019-05-03T05:49:08.714Z,95.60
2019-05-03T05:51:37.566Z,95.00
2019-05-03T05:54:06.479Z,93.70
2019-05-03T05:56:46.031Z,93.90
2019-05-03T05:59:28.511Z,92.80
2019-05-03T06:01:58.918Z,92.50
2019-05-03T06:04:29.786Z,92.80
2019-05-03T06:07:16.557Z,93.60
2019-05-03T06:09:59.162Z,92.90
2019-05-03T06:12:29.610Z,93.10
2019-05-03T06:15:00.051Z,93.10
2019-05-03T06:17:34.842Z,92.70
2019-05-03T06:20:11.664Z,93.20
2019-05-03T06:22:48.019Z,93.80
2019-05-03T06:25:26.561Z,93.50
2019-05-03T06:28:20.127Z,93.60
2019-05-03T06:31:04.784Z,93.50
2019-05-03T06:33:34.731Z,93.40
2019-05-03T06:36:04.921Z,92.70
2019-05-03T06:38:38.167Z,92.60
2019-05-03T06:41:04.788Z,93.00
2019-05-03T06:43:34.834Z,93.10
2019-05-03T06:46:05.324Z,92.60
2019-05-03T06:48:35.901Z,92.10
2019-05-03T06:51:09.276Z,92.70
2019-05-03T06:53:35.488Z,93.10
2019-05-03T06:56:05.305Z,93.00
2019-05-03T06:58:36.373Z,93.60
2019-05-03T07:01:06.293Z,93.80
2019-05-03T07:03:48.773Z,94.60
2019-05-03T07:06:32.627Z,94.90
2019-05-03T07:08:54.974Z,95.40
2019-05-03T07:11:24.753Z,95.60
2019-05-03T07:13:55.037Z,94.20
2019-05-03T07:16:25.376Z,93.90
2019-05-03T07:18:58.521Z,94.70
2019-05-03T07:21:27.004Z,94.50
2019-05-03T07:23:55.979Z,95.00
2019-05-03T07:26:25.418Z,95.60
2019-05-03T07:28:54.643Z,95.00
2019-05-03T07:31:25.636Z,95.60
2019-05-03T07:33:55.030Z,95.40
2019-05-03T07:36:27.602Z,96.20
2019-05-03T07:38:55.528Z,95.80
2019-05-03T07:41:27.172Z,95.60
2019-05-03T07:43:55.156Z,95.60
2019-05-03T07:46:24.717Z,95.90
2019-05-03T07:48:56.786Z,96.60
2019-05-03T07:51:28.587Z,96.70
2019-05-03T07:53:57.852Z,97.20
2019-05-03T07:56:28.434Z,97.70
2019-05-03T07:59:02.807Z,98.60
2019-05-03T08:01:29.821Z,99.00
2019-05-03T08:03:59.043Z,99.40
2019-05-03T08:06:28.107Z,98.90
2019-05-03T08:08:56.977Z,99.40
2019-05-03T08:11:27.220Z,99.10
2019-05-03T08:13:56.164Z,98.60
2019-05-03T08:16:25.335Z,98.30
2019-05-03T08:19:05.012Z,98.20
2019-05-03T08:21:38.671Z,98.40
2019-05-03T08:24:25.444Z,98.30
2019-05-03T08:27:14.810Z,97.70
2019-05-03T08:29:45.288Z,98.00
2019-05-03T08:32:35.515Z,98.40
2019-05-03T08:35:16.727Z,98.60
2019-05-03T08:40:54.757Z,97.10
2019-05-03T08:43:22.400Z,97.30
2019-05-03T08:45:55.241Z,96.80
2019-05-03T08:48:31.020Z,96.80
2019-05-03T08:52:12.309Z,97.80
2019-05-03T08:53:39.861Z,97.10
2019-05-03T08:56:15.503Z,96.30
2019-05-03T08:58:45.111Z,96.10
2019-05-03T09:01:16.231Z,94.50
2019-05-03T09:03:45.731Z,93.70
2019-05-03T09:06:16.505Z,93.70
2019-05-03T09:08:57.908Z,92.90
2019-05-03T09:11:34.040Z,94.10
2019-05-03T09:14:06.414Z,93.80
2019-05-03T09:16:36.979Z,93.70
2019-05-03T09:19:06.033Z,92.40
2019-05-03T09:21:34.910Z,91.90
2019-05-03T09:24:04.671Z,84.50
2019-05-03T09:26:34.846Z,78.40
2019-05-03T09:29:05.562Z,77.90
2019-05-03T09:31:35.273Z,74.30
2019-05-03T09:34:08.082Z,72.90
2019-05-03T09:36:35.234Z,73.30
2019-05-03T09:39:07.166Z,70.70
2019-05-03T09:41:35.752Z,74.20
2019-05-03T09:44:04.786Z,77.00
2019-05-03T09:46:35.443Z,73.90
2019-05-03T09:49:12.759Z,76.80
2019-05-03T09:51:37.119Z,81.20
2019-05-03T09:54:08.046Z,76.50
2019-05-03T09:56:58.170Z,75.30
2019-05-03T09:59:26.737Z,75.50
2019-05-03T10:01:55.596Z,71.60
2019-05-03T10:04:25.570Z,72.20
2019-05-03T10:06:55.485Z,68.50
2019-05-03T10:09:26.116Z,65.60
2019-05-03T10:11:55.304Z,61.60
2019-05-03T10:14:26.962Z,62.00
2019-05-03T10:17:05.194Z,69.20
2019-05-03T10:19:39.860Z,70.00
2019-05-03T10:22:05.862Z,74.10
2019-05-03T10:24:35.144Z,73.30
2019-05-03T10:27:05.684Z,74.10
2019-05-03T10:29:35.713Z,68.10
2019-05-03T10:32:10.592Z,65.60
2019-05-03T10:34:41.155Z,61.90
2019-05-03T10:37:30.373Z,62.70
2019-05-03T10:40:00.888Z,58.10
2019-05-03T10:42:29.871Z,60.50
2019-05-03T10:44:58.748Z,59.70
2019-05-03T10:47:27.763Z,61.50
2019-05-03T10:49:56.914Z,59.70
2019-05-03T10:52:27.356Z,61.00
2019-05-03T10:54:56.289Z,63.90
2019-05-03T10:57:26.976Z,61.40
2019-05-03T10:59:57.443Z,61.80
2019-05-03T11:02:35.237Z,60.40
2019-05-03T11:05:08.215Z,61.10
2019-05-03T11:07:37.070Z,59.00
2019-05-03T11:10:07.270Z,61.30
2019-05-03T11:12:36.124Z,55.50
2019-05-03T11:15:07.079Z,58.00
2019-05-03T11:17:36.010Z,56.00
2019-05-03T11:20:05.984Z,57.00
2019-05-03T11:22:35.015Z,53.40
2019-05-03T11:25:05.166Z,56.70
2019-05-03T11:27:35.817Z,55.20
2019-05-03T11:30:09.284Z,52.90
2019-05-03T11:32:50.822Z,52.90
2019-05-03T11:35:21.330Z,55.90
2019-05-03T11:37:57.868Z,55.00
2019-05-03T11:40:28.755Z,55.30
2019-05-03T11:42:59.187Z,55.70
2019-05-03T11:45:28.069Z,56.30
2019-05-03T11:47:57.078Z,54.20
2019-05-03T11:50:26.031Z,54.70
2019-05-03T11:52:57.624Z,55.80
2019-05-03T11:55:26.965Z,55.30
2019-05-03T11:57:56.631Z,55.40
2019-05-03T12:00:27.274Z,56.80
2019-05-03T12:03:00.909Z,62.70
2019-05-03T12:05:31.031Z,66.30
2019-05-03T12:07:59.910Z,66.20
2019-05-03T12:10:44.798Z,66.20
2019-05-03T12:13:00.931Z,64.30
2019-05-03T12:15:29.811Z,63.10
2019-05-03T12:18:05.479Z,61.90
2019-05-03T12:20:37.178Z,63.60
2019-05-03T12:23:12.038Z,63.80
2019-05-03T12:25:41.868Z,59.70
2019-05-03T12:28:11.294Z,57.90
2019-05-03T12:30:40.217Z,55.80
2019-05-03T12:33:09.189Z,58.00
2019-05-03T12:35:38.089Z,56.60
2019-05-03T12:38:07.014Z,55.20
2019-05-03T12:40:35.868Z,55.60
2019-05-03T12:43:06.027Z,54.50
2019-05-03T12:45:35.474Z,53.00
2019-05-03T12:48:05.238Z,55.60
2019-05-03T12:50:34.843Z,55.00
2019-05-03T12:53:04.780Z,54.70
2019-05-03T12:55:35.744Z,53.10
2019-05-03T12:58:06.363Z,53.70
2019-05-03T13:00:55.793Z,56.50
2019-05-03T13:03:28.979Z,52.80
2019-05-03T13:05:57.843Z,60.20
2019-05-03T13:08:38.026Z,70.80
2019-05-03T13:11:07.697Z,80.20
2019-05-03T13:13:38.336Z,86.30
2019-05-03T13:16:07.873Z,88.20
2019-05-03T13:18:36.727Z,84.90
2019-05-03T13:21:06.311Z,80.60
2019-05-03T13:23:35.796Z,77.20
2019-05-03T13:26:05.776Z,70.00
2019-05-03T13:28:35.291Z,69.70
2019-05-03T13:31:05.766Z,67.40
2019-05-03T13:33:35.151Z,68.90
2019-05-03T13:36:04.873Z,61.90
2019-05-03T13:38:34.946Z,57.70
2019-05-03T13:41:06.559Z,57.20
2019-05-03T13:43:35.038Z,55.70
2019-05-03T13:46:05.158Z,54.70
2019-05-03T13:48:42.677Z,57.10
2019-05-03T13:51:05.442Z,55.00
2019-05-03T13:53:34.966Z,57.90
2019-05-03T13:56:04.798Z,55.00
2019-05-03T13:58:35.722Z,61.40
2019-05-03T14:01:05.464Z,70.10
2019-05-03T14:03:35.403Z,73.00
2019-05-03T14:06:08.719Z,74.10
2019-05-03T14:08:35.263Z,75.10
2019-05-03T14:11:04.985Z,75.90
2019-05-03T14:13:35.399Z,78.40
2019-05-03T14:16:05.740Z,76.50
2019-05-03T14:18:35.521Z,76.20
2019-05-03T14:21:12.137Z,70.50
2019-05-03T14:23:58.868Z,71.10
2019-05-03T14:26:27.739Z,70.90
2019-05-03T14:28:56.589Z,75.40
2019-05-03T14:31:25.493Z,80.00
2019-05-03T14:33:55.787Z,77.00
2019-05-03T14:36:25.190Z,77.00
2019-05-03T14:38:54.862Z,76.90
2019-05-03T14:41:25.467Z,74.10
2019-05-03T14:43:55.648Z,72.50
2019-05-03T14:46:32.827Z,72.00
2019-05-03T14:48:55.290Z,70.80
2019-05-03T14:51:26.311Z,65.10
2019-05-03T14:53:56.976Z,65.00
2019-05-03T14:56:27.653Z,64.40
2019-05-03T14:59:07.110Z,64.80
2019-05-03T15:01:37.875Z,59.10
2019-05-03T15:04:06.750Z,55.50
2019-05-03T15:06:37.115Z,54.90
2019-05-03T15:09:07.599Z,52.60
2019-05-03T15:11:36.459Z,53.10
2019-05-03T15:14:05.703Z,53.50
2019-05-03T15:16:34.661Z,50.80
2019-05-03T15:19:05.316Z,50.50
2019-05-03T15:21:34.655Z,52.20
2019-05-03T15:24:05.555Z,54.50
2019-05-03T15:26:35.604Z,54.10
2019-05-03T15:29:05.932Z,55.40
2019-05-03T15:31:35.356Z,56.50
2019-05-03T15:34:04.710Z,55.90
2019-05-03T15:36:33.791Z,56.40
2019-05-03T15:39:04.589Z,54.70
2019-05-03T15:41:35.881Z,55.80
2019-05-03T15:44:10.507Z,56.60
2019-05-03T15:46:40.989Z,56.10
2019-05-03T15:49:11.456Z,55.00
2019-05-03T15:51:40.362Z,56.80
2019-05-03T15:54:09.282Z,56.20
2019-05-03T15:56:38.157Z,54.70
2019-05-03T15:59:07.420Z,53.10
2019-05-03T16:01:36.501Z,52.90
2019-05-03T16:04:05.529Z,53.10
2019-05-03T16:06:34.442Z,54.40
2019-05-03T16:09:04.579Z,55.70
2019-05-03T16:11:34.379Z,55.40
2019-05-03T16:14:04.538Z,53.80
2019-05-03T16:16:35.249Z,55.90
2019-05-03T16:19:05.458Z,58.30
2019-05-03T16:21:36.620Z,59.30
2019-05-03T16:24:05.071Z,60.40
2019-05-03T16:26:35.507Z,62.30
2019-05-03T16:29:06.172Z,61.80
2019-05-03T16:31:37.768Z,63.40
2019-05-03T16:34:06.710Z,63.90
2019-05-03T16:36:36.892Z,62.70
2019-05-03T16:39:06.952Z,65.80
2019-05-03T16:41:35.807Z,66.70
2019-05-03T16:44:05.591Z,65.10
2019-05-03T16:46:34.473Z,66.30
2019-05-03T16:49:04.507Z,68.30
2019-05-03T16:51:34.933Z,67.20
2019-05-03T16:54:03.913Z,67.30
2019-05-03T16:56:35.118Z,74.20
2019-05-03T16:59:05.637Z,79.90
2019-05-03T17:01:35.180Z,85.10
2019-05-03T17:04:22.955Z,85.40
2019-05-03T17:07:09.929Z,88.20
2019-05-03T17:09:46.272Z,89.30
2019-05-03T17:12:16.749Z,90.10
2019-05-03T17:14:45.639Z,91.60
2019-05-03T17:17:14.985Z,90.70
2019-05-03T17:19:44.703Z,90.50
2019-05-03T17:22:17.465Z,90.30
2019-05-03T17:24:51.526Z,90.20
2019-05-03T17:27:19.488Z,89.80
2019-05-03T17:29:48.390Z,90.30
2019-05-03T17:32:19.156Z,90.80
2019-05-03T17:34:49.240Z,91.10
2019-05-03T17:37:18.138Z,91.40
2019-05-03T17:39:48.642Z,91.40
2019-05-03T17:42:19.085Z,91.80
2019-05-03T17:44:48.395Z,91.80
2019-05-03T17:47:17.254Z,92.10
2019-05-03T17:49:46.137Z,92.00
2019-05-03T17:52:16.616Z,92.50
2019-05-03T17:54:47.097Z,92.50
2019-05-03T17:57:35.828Z,92.70
2019-05-03T18:00:26.404Z,92.80
2019-05-03T18:02:55.946Z,92.50
2019-05-03T18:05:34.481Z,92.50
2019-05-03T18:08:09.494Z,92.50
2019-05-03T18:10:39.954Z,93.30
2019-05-03T18:13:08.837Z,93.60
2019-05-03T18:15:37.782Z,93.80
2019-05-03T18:18:06.744Z,92.80
2019-05-03T18:20:35.740Z,93.60
2019-05-03T18:23:05.148Z,94.80
2019-05-03T18:25:35.447Z,95.10
2019-05-03T18:28:04.560Z,95.00
2019-05-03T18:30:34.890Z,95.20
2019-05-03T18:33:04.876Z,95.80
2019-05-03T18:35:33.952Z,96.50
2019-05-03T18:38:02.930Z,96.70
2019-05-03T18:49:15.331Z,97.50
2019-05-03T18:52:01.654Z,97.50
2019-05-03T18:57:26.825Z,97.90
2019-05-03T19:00:00.429Z,97.80
2019-05-03T19:02:33.483Z,97.90
2019-05-03T19:05:15.255Z,97.80
2019-05-03T19:10:52.718Z,98.00
2019-05-03T19:13:41.811Z,98.10
2019-05-03T19:16:26.843Z,98.20
2019-05-03T19:18:58.972Z,98.30
2019-05-03T19:21:32.673Z,98.20
2019-05-03T19:24:05.365Z,98.00
2019-05-03T19:26:44.921Z,98.20
2019-05-03T19:29:19.003Z,98.20
2019-05-03T19:31:51.293Z,98.30
2019-05-03T19:34:26.961Z,98.00
2019-05-03T19:36:59.200Z,97.90
2019-05-03T19:39:31.722Z,98.10
2019-05-03T19:42:04.847Z,98.20
2019-05-03T19:44:35.225Z,98.60
2019-05-03T19:47:06.569Z,98.70
2019-05-03T19:49:35.426Z,98.30
2019-05-03T19:52:05.193Z,98.60
2019-05-03T19:54:36.504Z,98.60
2019-05-03T19:57:05.516Z,98.60
2019-05-03T19:59:51.268Z,98.60
2019-05-03T20:02:40.619Z,98.90
2019-05-03T20:05:29.254Z,98.80
2019-05-03T20:14:06.522Z,98.60
2019-05-03T20:16:56.378Z,98.60
2019-05-03T20:22:36.516Z,98.90
2019-05-03T20:40:32.346Z,99.40
2019-05-03T20:49:21.424Z,99.50
2019-05-03T20:57:40.467Z,99.20
2019-05-03T21:00:11.788Z,98.90
2019-05-03T21:09:06.996Z,99.50
2019-05-03T21:17:34.555Z,99.90
2019-05-03T21:26:25.304Z,99.70
2019-05-03T21:31:47.915Z,99.70
2019-05-03T21:34:25.187Z,99.50
2019-05-03T21:37:12.672Z,99.30
2019-05-03T21:40:06.529Z,98.70
2019-05-03T21:42:39.941Z,98.90
2019-05-03T21:45:33.026Z,99.30
2019-05-03T21:48:10.651Z,99.20
2019-05-03T21:50:39.725Z,99.30
2019-05-03T21:53:10.249Z,99.60
2019-05-03T21:55:39.233Z,99.50
2019-05-03T21:58:08.356Z,99.40
2019-05-03T22:00:55.063Z,99.20
2019-05-03T22:03:25.221Z,99.30
2019-05-03T22:11:52.196Z,99.20
2019-05-03T22:14:26.843Z,99.20
2019-05-03T22:17:16.746Z,99.80
2019-05-03T22:19:50.058Z,99.70
2019-05-03T22:25:20.264Z,99.60
2019-05-03T22:27:49.246Z,99.40
2019-05-03T22:30:19.080Z,99.60
2019-05-03T22:32:48.479Z,99.30
2019-05-03T22:35:17.709Z,99.30
2019-05-03T22:37:46.704Z,99.20
2019-05-03T22:40:15.597Z,99.20
2019-05-03T22:42:44.895Z,99.20
2019-05-03T22:45:14.254Z,99.20
2019-05-03T22:47:44.562Z,99.20
2019-05-03T22:50:20.145Z,99.20
2019-05-03T22:52:52.096Z,98.70
2019-05-03T22:55:21.052Z,99.10
2019-05-03T22:57:49.921Z,99.40
2019-05-03T23:00:19.183Z,98.70
2019-05-03T23:02:48.212Z,98.30
2019-05-03T23:05:17.112Z,98.60
2019-05-03T23:07:46.938Z,98.70
2019-05-03T23:10:17.478Z,98.80
2019-05-03T23:12:46.609Z,98.90
2019-05-03T23:15:16.978Z,99.10
2019-05-03T23:17:45.892Z,99.30
2019-05-03T23:20:25.355Z,99.20
2019-05-03T23:22:54.750Z,99.20
2019-05-03T23:25:25.011Z,99.20
2019-05-03T23:27:55.719Z,99.10
2019-05-03T23:30:24.923Z,98.60
2019-05-03T23:32:54.746Z,98.00
2019-05-03T23:35:24.687Z,97.50
2019-05-03T23:37:54.358Z,97.20
2019-05-03T23:40:25.274Z,97.10
2019-05-03T23:42:55.557Z,97.00
2019-05-03T23:45:25.550Z,96.70
2019-05-03T23:47:54.713Z,96.70
2019-05-03T23:50:24.918Z,96.50
2019-05-03T23:52:56.993Z,96.80
2019-05-03T23:55:27.565Z,96.30
2019-05-03T23:57:56.462Z,96.40
